ADDS METAR Data INFO
IDs: Format: Raw Decoded Include TAF

Data at: 1949 UTC 15 Dec 2017

PASD 151856Z 24014G25KT 10SM FEW023 BKN028 BKN036 06/M01 A2902 RMK AO2 PK WND 24030/1831 SLP830 T00561006 PNO $
PASD 151756Z 24017G25KT 10SM FEW023 BKN028 BKN034 06/00 A2899 RMK AO2 PK WND 23034/1723 RAE35 SLP818 6//// T00560000 10061 20050 51031 PNO $
PASD 151727Z 24019G34KT 10SM -RA BKN023 BKN028 05/01 A2898 RMK AO2 PK WND 23034/1723 PNO $
PASD 151700Z 23019G29KT 4SM -RA BR OVC027 05/02 A2896 RMK AO2 PNO $
PASD 151658Z 24020G29KT 5SM -RA BR OVC027 05/02 A2896 RMK AO2 PNO $
PASD 151656Z 24024G29KT 5SM -RA BKN020 05/02 A2896 RMK AO2 PK WND 25036/1632 RAE1558B37 SLP809 T00500017 PNO $
PASD 151637Z 25023G36KT 10SM -RA BKN020 06/01 A2895 RMK AO2 PK WND 25036/1632 RAE1558B37 PNO $
PASD 151556Z 25025G34KT 10SM -RA BKN020 06/02 A2892 RMK AO2 PK WND 26034/1555 SLP797 T00560017 PNO $
PASD 151303Z AUTO 22035G42KT 9SM FEW014 OVC020 06/02 A2885 RMK AO2 PK WND 22042/1258 PNO $
PASD 151256Z AUTO 22029G35KT 9SM BKN014 OVC021 06/03 A2885 RMK AO2 PK WND 22035/1256 RAE40 SLP773 T00560028 PNO $
PASD 151254Z AUTO 22029G35KT 10SM BKN016 OVC021 06/03 A2885 RMK AO2 PK WND 22035/1251 RAE40 PNO $
PASD 151233Z AUTO 22025G35KT 9SM -RA OVC014 06/03 A2887 RMK AO2 PK WND 21035/1227 PNO $
PASD 151156Z AUTO 21023G35KT 7SM -RA BKN016 OVC026 06/04 A2888 RMK AO2 PK WND 21035/1147 RAB08 SLP781 6//// 7//// T00560039 10061 20011 55054 PNO $
PASD 151143Z AUTO 21030G35KT 7SM -RA OVC016 06/03 A2887 RMK AO2 PK WND 21035/1143 RAB08 PNO $
PASD 151117Z AUTO 20024G32KT 8SM -RA FEW007 OVC014 06/04 A2888 RMK AO2 PK WND 21032/1113 RAB08 PNO $
PASD 151056Z AUTO 21024G38KT 8SM OVC007 06/04 A2887 RMK AO2 PK WND 21038/1051 RAE48 CIG 005V011 SLP778 T00610039 PNO $
PASD 151037Z AUTO 19028G33KT 4SM -RA BR BKN005 BKN015 OVC023 06/06 A2888 RMK AO2 PK WND 18033/1036 PNO $
PASD 151029Z AUTO 19025G32KT 4SM -RA BR SCT005 BKN015 OVC023 06/06 A2890 RMK AO2 PK WND 19032/1027 PNO $
PASD 151022Z AUTO 18019G26KT 3SM -RA BR SCT014 BKN021 OVC031 06/06 A2891 RMK AO2 PK WND 17026/1016 PNO $
PASD 151016Z AUTO 17019G26KT 2 1/2SM -RA BR BKN014 OVC025 06/05 A2890 RMK AO2 PK WND 17026/1016 PRESFR PNO $
PASD 151009Z AUTO 17016G23KT 2 1/2SM -RA BR SCT014 BKN025 OVC031 06/04 A2891 RMK AO2 PNO $
PASD 150956Z AUTO 17011G23KT 3SM -RA BR BKN014 OVC020 05/03 A2893 RMK AO2 PRESFR SLP800 T00500033 PNO $
PASD 150856Z AUTO VRB06KT 4SM -RA BR OVC014 02/01 A2904 RMK AO2 RAB37SNE37 PRESFR SLP835 6//// T00170006 400440011 58067 FZRANO PNO $
PASD 150835Z AUTO 15007KT 100V270 3SM -SN BR BKN010 OVC014 01/00 A2909 RMK AO2 CIG 007V012 FZRANO PNO $
PASD 150823Z AUTO VRB03KT 3SM -SN BR OVC008 01/00 A2909 RMK AO2 PRESFR FZRANO PNO $
PASD 150756Z AUTO VRB05G16KT 2 1/2SM -SN BR OVC008 01/00 A2913 RMK AO2 VIS 1 3/4V3 UPE09SNB09 CIG 006V011 SLP867 T00110000 FZRANO PNO $
PASD 150746Z AUTO VRB04KT 2SM -SN BR OVC008 01/00 A2915 RMK AO2 VIS 1 1/2V3 UPE09SNB09 CIG 006V010 PRESFR FZRANO PNO $
PASD 150735Z AUTO VRB04KT 4SM -SN BR BKN008 OVC012 01/00 A2916 RMK AO2 UPE09SNB09 FZRANO PNO $
PASD 150556Z AUTO 17007G20KT 140V200 10SM -RA OVC026 03/M01 A2932 RMK AO2 UPB15E22RAB22 PRESFR SLP930 6//// T00281006 10039 20022 58041 PNO $
PASD 150453Z AUTO 16008G14KT 130V190 10SM SCT024 BKN080 OVC095 03/M01 A2938 RMK AO2 RAB13E29 PNO $
PASD 150431Z AUTO 17010G15KT 10SM FEW017 BKN027 OVC033 02/M01 A2941 RMK AO2 RAB13E29 FZRANO PNO $
PASD 150404Z AUTO 17008KT 10SM BKN030 BKN120 03/M01 A2943 RMK AO2 PNO $
PASD 150356Z 16005KT 10SM BKN030 03/M02 A2944 RMK AO2 SLP970 LAST AE T00281017 PNO $
PASD 150306Z 17010G17KT 10SM SCT023 OVC030 03/M01 A2947 RMK AO2 AE PNO $
PASD 150256Z 17010G16KT 10SM SCT023 OVC030 03/M01 A2948 RMK AO2 SLP986 AE 6//// T00331011 58027 PNO $
PASD 150156Z 18014KT 10SM SCT019 BKN027 OVC040 03/M01 A2951 RMK AO2 SLP997 KH T00331006 PNO $
PASD 150056Z 20013KT 10SM SCT019 BKN026 BKN040 03/-01 A2954 RMK KH
PASD 150011Z 20013KT 10SM SCT024 BKN033 BKN040 03/M01 A2957 RMK AO2 RAE11 KH PNO $
PASD 142356Z 21014KT 10SM -RA FEW022 BKN028 BKN038 04/M01 A2956 RMK AO2 RAB56 SLP013 KH 6//// T00391011 10044 20022 58010 PNO $
PASD 142313Z 20012KT 10SM SCT023 BKN029 BKN040 04/M02 A2957 RMK AO2 KH PNO $
PASD 142254Z 21010KT 10SM SCT024 BKN038 04/M01 A2957 RMK AO2 RAB35E43 KH PNO $
PASD 142243Z 19009KT 10SM SCT022 BKN027 BKN038 04/00 A2958 RMK AO2 RAB35E43 KH PNO $
PASD 142156Z 21009KT 10SM SCT023 BKN032 BKN040 03/M01 A2959 RMK AO2 RAB03E24 SLP023 KH T00331006 PNO $
PASD 142057Z 21010G15KT 10SM SCT021 BKN028 BKN044 04/M01 A2959 RMK AO2 KH PNO $
PASD 142056Z 22009KT 10SM SCT021 BKN028 BKN044 04/M01 A2959 RMK AO2 SLP024 KH 6//// T00391006 51009 PNO $
PASD 141956Z 17006KT 10SM FEW012 SCT019 SCT032 03/00 A2958 RMK AO2 SLP021 KH T00280000 PNO $
PASD 141856Z 20007KT 10SM FEW005 SCT018 SCT025 03/00 A2958 RMK AO2 SLP019 KH T00330000 PNO $
PASD 141824Z 20006KT 10SM FEW022 SCT036 SCT050 03/00 A2957 RMK AO2 KH PNO $
PASD 141756Z 21010KT 10SM FEW022 BKN035 OVC042 03/01 A2957 RMK KH
PASD 141656Z 21008KT 10SM FEW030 BKN039 BKN049 03/01 A2956 RMK KH
PASD 141556Z 20007KT 9SM -RA FEW012 BKN018 BKN034 03/01 A2957 RMK AO2 RAB49 SLP017 KH T00330011 PNO $
PASD 141356Z AUTO 14004KT 10SM BKN019 03/01 A2957 RMK AO2 SLP017 T00330011 PNO $
PASD 141256Z AUTO VRB03KT 10SM OVC017 03/01 A2957 RMK AO2 SLP015 T00330011 PNO $
PASD 141156Z AUTO 14005KT 10SM BKN021 03/01 A2957 RMK AO2 RAB1058E19 SLP014 6//// 7//// T00280011 10044 20028 56004 PNO $
PASD 141154Z AUTO 14004KT 10SM BKN021 03/01 A2957 RMK AO2 RAB1058E19 PNO $
PASD 141126Z AUTO 00000KT 10SM OVC030 03/02 A2957 RMK AO2 RAB1058E19 PNO $
PASD 140956Z AUTO 16008KT 6SM RA BR BKN017 BKN024 OVC031 03/01 A2958 RMK AO2 RAE12B42 SLP018 T00280011 PNO $
PASD 140927Z AUTO 00000KT 10SM SCT019 OVC034 03/01 A2957 RMK AO2 RAE12 PNO $
PASD 140856Z AUTO 14003KT 8SM -RA BKN022 BKN028 OVC036 03/02 A2957 RMK AO2 RAB29UPB38E42 SLP016 6//// T00330017 400500028 56001 PNO $
PASD 140852Z AUTO 13004KT 7SM -RA BKN022 BKN028 OVC036 03/02 A2957 RMK AO2 RAB29UPB38E42 400500028 PNO $
PASD 140756Z AUTO 00000KT 10SM FEW025 OVC035 03/01 A2957 RMK AO2 RAB03E37 SLP017 T00330011 PNO $
PASD 140751Z AUTO 11003KT 10SM SCT028 OVC037 03/01 A2957 RMK AO2 RAB03E37 PNO $